Time;durP1;ratioP1;P1;durP2;ratioP2;P2;SDS_P1;SDS_P2;PMS_P1;PMS_P2;Temp;Humidity;BMP_temperature;BMP_pressure;BME280_temperature;BME280_humidity;BME280_pressure;Samples;Min_cycle;Max_cycle;Signal;HPM_P1;HPM_P2
2021/12/06 00:01:23;;;;;;;35.77;19.50;;;2.30;99.90;;;;;;4157058;28;20324;-66
2021/12/06 00:03:40;;;;;;;35.83;19.00;;;2.40;99.90;;;;;;4157533;28;20812;-61
2021/12/06 00:05:41;;;;;;;35.67;18.20;;;2.40;99.90;;;;;;4156876;28;20812;-61
2021/12/06 00:07:43;;;;;;;37.03;19.93;;;2.40;99.90;;;;;;4157764;28;20297;-70
2021/12/06 00:09:44;;;;;;;35.90;19.07;;;2.40;99.90;;;;;;4156644;28;20347;-61
2021/12/06 00:11:45;;;;;;;35.57;19.70;;;2.40;99.90;;;;;;4157198;28;20658;-69
2021/12/06 00:13:49;;;;;;;37.73;19.27;;;2.40;99.90;;;;;;4157065;28;20304;-64
2021/12/06 00:15:51;;;;;;;36.27;19.10;;;2.50;99.90;;;;;;4156836;28;20266;-61
2021/12/06 00:17:52;;;;;;;32.57;19.37;;;2.50;99.90;;;;;;4157738;28;20274;-68
2021/12/06 00:19:54;;;;;;;34.00;19.43;;;2.50;99.90;;;;;;4156210;28;20294;-63
2021/12/06 00:21:56;;;;;;;35.93;19.03;;;2.50;99.90;;;;;;4157879;28;20344;-61
2021/12/06 00:23:57;;;;;;;32.20;18.27;;;2.50;99.90;;;;;;4156875;28;21363;-65
2021/12/06 00:25:58;;;;;;;34.70;18.67;;;2.50;99.90;;;;;;4157700;28;21284;-66
2021/12/06 00:27:59;;;;;;;32.90;18.43;;;2.50;99.90;;;;;;4156072;28;20325;-71
2021/12/06 00:30:00;;;;;;;31.57;17.80;;;2.50;99.90;;;;;;4157504;28;20836;-62
2021/12/06 00:32:02;;;;;;;36.07;19.10;;;2.50;99.90;;;;;;4156650;28;20259;-70
2021/12/06 00:34:08;;;;;;;31.17;18.00;;;2.50;99.90;;;;;;4157775;28;20263;-72
2021/12/06 00:36:16;;;;;;;35.90;17.57;;;2.50;99.90;;;;;;4156681;28;20267;-64
2021/12/06 00:38:17;;;;;;;29.57;16.80;;;2.50;99.90;;;;;;4157735;28;20333;-61
2021/12/06 00:40:19;;;;;;;30.97;16.40;;;2.50;99.90;;;;;;4156526;28;20255;-61
2021/12/06 00:42:23;;;;;;;34.93;17.43;;;2.50;99.90;;;;;;4157201;28;20278;-69
2021/12/06 00:44:24;;;;;;;32.50;17.17;;;2.50;99.90;;;;;;4156719;28;20251;-63
2021/12/06 00:46:26;;;;;;;28.70;16.10;;;2.50;99.90;;;;;;4156944;28;20271;-61
2021/12/06 00:48:27;;;;;;;33.17;16.97;;;2.50;99.90;;;;;;4156392;28;20360;-61
2021/12/06 00:50:32;;;;;;;33.20;17.80;;;2.50;99.90;;;;;;4156000;28;20706;-63
2021/12/06 00:52:33;;;;;;;32.60;17.50;;;2.50;99.90;;;;;;4156960;28;20266;-66
2021/12/06 00:54:35;;;;;;;36.00;19.57;;;2.50;99.90;;;;;;4154790;28;20767;-66
2021/12/06 00:56:39;;;;;;;37.17;19.23;;;2.40;99.90;;;;;;4157444;28;20266;-73
2021/12/06 00:58:40;;;;;;;37.60;19.17;;;2.40;99.90;;;;;;4156420;28;20329;-68
2021/12/06 01:00:49;;;;;;;35.27;18.90;;;2.40;99.90;;;;;;4157407;28;20280;-61
2021/12/06 01:02:52;;;;;;;29.67;17.03;;;2.40;99.90;;;;;;4156495;28;20274;-66
2021/12/06 01:04:53;;;;;;;33.30;17.50;;;2.40;99.90;;;;;;4157704;28;20266;-71
2021/12/06 01:06:55;;;;;;;33.10;18.80;;;2.40;99.90;;;;;;4155896;28;21176;-64
2021/12/06 01:08:56;;;;;;;36.80;18.70;;;2.40;99.90;;;;;;4157485;28;20642;-70
2021/12/06 01:10:57;;;;;;;36.27;19.50;;;2.40;99.90;;;;;;4156179;28;20368;-61
2021/12/06 01:12:59;;;;;;;34.47;18.83;;;2.40;99.90;;;;;;4157301;28;20267;-69
2021/12/06 01:15:01;;;;;;;32.60;18.20;;;2.40;99.90;;;;;;4156095;28;20271;-67
2021/12/06 01:17:03;;;;;;;36.50;19.13;;;2.40;99.90;;;;;;4156777;28;20271;-65
2021/12/06 01:19:04;;;;;;;34.17;18.47;;;2.40;99.90;;;;;;4156175;28;20329;-69
2021/12/06 01:21:22;;;;;;;36.33;18.90;;;2.40;99.90;;;;;;4156992;28;20270;-72
2021/12/06 01:23:28;;;;;;;31.63;17.50;;;2.40;99.90;;;;;;4156702;28;20263;-65
2021/12/06 01:25:40;;;;;;;30.67;18.13;;;2.40;99.90;;;;;;4160043;28;21090;-70
2021/12/06 01:28:03;;;;;;;38.40;19.67;;;2.40;99.90;;;;;;4158241;28;20267;-69
2021/12/06 01:30:25;;;;;;;35.53;19.80;;;2.40;99.90;;;;;;4160051;28;20384;-69
2021/12/06 01:39:18;;;;;;;35.10;19.05;;;2.30;99.90;;;;;;4160040;28;20320;-64
2021/12/06 01:41:19;;;;;;;37.77;19.77;;;2.30;99.90;;;;;;4159316;28;20099;-62
2021/12/06 01:43:21;;;;;;;36.03;18.30;;;2.30;99.90;;;;;;4160297;28;20267;-65
2021/12/06 01:45:22;;;;;;;31.47;17.53;;;2.30;99.90;;;;;;4158867;28;20270;-62
2021/12/06 01:47:29;;;;;;;36.33;19.17;;;2.30;99.90;;;;;;4159779;28;20325;-64
2021/12/06 01:49:37;;;;;;;34.93;17.23;;;2.30;99.90;;;;;;4159036;28;20274;-69
2021/12/06 01:51:39;;;;;;;30.30;17.60;;;2.30;99.90;;;;;;4159819;28;20344;-60
2021/12/06 01:53:40;;;;;;;35.70;19.03;;;2.30;99.90;;;;;;4159411;28;20325;-62
2021/12/06 01:55:41;;;;;;;33.27;18.20;;;2.30;99.90;;;;;;4159029;28;20775;-62
2021/12/06 01:57:42;;;;;;;33.03;17.83;;;2.30;99.90;;;;;;4159557;28;20286;-67
2021/12/06 01:59:44;;;;;;;35.20;17.37;;;2.30;99.90;;;;;;4159189;28;21143;-69
2021/12/06 02:01:46;;;;;;;30.10;16.73;;;2.30;99.90;;;;;;4159279;28;20349;-71
2021/12/06 02:03:47;;;;;;;32.90;16.27;;;2.30;99.90;;;;;;4158761;28;20321;-67
2021/12/06 02:05:50;;;;;;;35.13;17.73;;;2.40;99.90;;;;;;4159539;28;20332;-69
2021/12/06 02:07:52;;;;;;;32.50;15.67;;;2.40;99.90;;;;;;4158717;28;20279;-69
2021/12/06 02:09:54;;;;;;;28.80;16.53;;;2.40;99.90;;;;;;4159948;28;20266;-68
2021/12/06 02:12:01;;;;;;;28.47;16.00;;;2.40;99.90;;;;;;4159079;28;20258;-62
2021/12/06 02:14:19;;;;;;;30.50;16.40;;;2.40;99.90;;;;;;4159464;28;20336;-66
2021/12/06 02:16:29;;;;;;;31.10;17.30;;;2.40;99.90;;;;;;4158615;28;20255;-69
2021/12/06 02:20:45;;;;;;;31.93;17.23;;;2.40;99.90;;;;;;4158484;28;20103;-62
2021/12/06 02:22:47;;;;;;;30.37;16.23;;;2.50;99.90;;;;;;4159654;28;20659;-73
2021/12/06 02:24:49;;;;;;;27.10;14.83;;;2.50;99.90;;;;;;4158053;28;20325;-61
2021/12/06 02:26:51;;;;;;;28.93;16.50;;;2.40;99.90;;;;;;4159045;28;20262;-61
2021/12/06 02:28:53;;;;;;;29.03;15.27;;;2.50;99.90;;;;;;4157946;28;20263;-63
2021/12/06 02:30:54;;;;;;;30.00;16.67;;;2.50;99.90;;;;;;4158721;28;20282;-61
2021/12/06 02:32:56;;;;;;;28.50;15.43;;;2.50;99.90;;;;;;4157586;28;20396;-62
2021/12/06 02:34:58;;;;;;;30.57;16.87;;;2.50;99.90;;;;;;4158160;28;20254;-61
2021/12/06 02:37:00;;;;;;;28.90;16.03;;;2.50;99.90;;;;;;4156682;28;21058;-71
2021/12/06 02:39:05;;;;;;;31.03;16.90;;;2.50;99.90;;;;;;4159420;28;20604;-65
2021/12/06 02:41:08;;;;;;;27.83;16.97;;;2.50;99.90;;;;;;4158517;28;20251;-65
2021/12/06 02:43:12;;;;;;;28.80;15.67;;;2.50;99.90;;;;;;4158573;28;20674;-66
2021/12/06 02:45:17;;;;;;;33.03;17.70;;;2.50;99.90;;;;;;4158634;28;20267;-64
2021/12/06 02:47:19;;;;;;;28.97;16.13;;;2.50;99.90;;;;;;4158114;28;20336;-69
2021/12/06 02:49:20;;;;;;;31.97;18.13;;;2.50;99.90;;;;;;4158745;28;20316;-70
2021/12/06 02:51:22;;;;;;;37.93;18.97;;;2.50;99.90;;;;;;4157623;28;20352;-63
2021/12/06 02:53:25;;;;;;;33.33;18.07;;;2.50;99.90;;;;;;4159053;28;20287;-71
2021/12/06 02:55:34;;;;;;;30.17;16.97;;;2.50;99.90;;;;;;4157586;28;20255;-62
2021/12/06 02:57:38;;;;;;;31.70;16.67;;;2.50;99.90;;;;;;4159332;28;20275;-63
2021/12/06 02:59:42;;;;;;;29.47;15.80;;;2.50;99.90;;;;;;4157654;28;20388;-65
2021/12/06 03:01:52;;;;;;;30.27;16.00;;;2.50;99.90;;;;;;4158713;28;20833;-63
2021/12/06 03:03:54;;;;;;;25.15;13.82;;;2.50;99.90;;;;;;4157834;28;20328;-61
2021/12/06 03:05:55;;;;;;;30.87;16.80;;;2.50;99.90;;;;;;4159028;28;20647;-62
2021/12/06 03:07:59;;;;;;;32.80;16.03;;;2.50;99.90;;;;;;4157947;28;20278;-70
2021/12/06 03:10:01;;;;;;;29.83;15.80;;;2.50;99.90;;;;;;4159143;28;20274;-67
2021/12/06 03:12:07;;;;;;;26.03;15.50;;;2.50;99.90;;;;;;4157869;28;20353;-72
2021/12/06 03:14:11;;;;;;;31.70;16.87;;;2.50;99.90;;;;;;4158700;28;20333;-71
2021/12/06 03:16:12;;;;;;;31.17;17.03;;;2.50;99.90;;;;;;4157755;28;20576;-73
2021/12/06 03:18:13;;;;;;;32.50;17.63;;;2.50;99.90;;;;;;4158134;28;20308;-70
2021/12/06 03:20:16;;;;;;;36.40;18.60;;;2.40;99.90;;;;;;4157482;28;20658;-73
2021/12/06 03:22:18;;;;;;;33.87;18.73;;;2.40;99.90;;;;;;4158133;28;20262;-71
2021/12/06 03:24:20;;;;;;;34.33;17.67;;;2.40;99.90;;;;;;4157618;28;20793;-71
2021/12/06 03:26:22;;;;;;;34.67;18.80;;;2.30;99.90;;;;;;4158395;28;20703;-70
2021/12/06 03:28:23;;;;;;;32.20;19.03;;;2.30;99.90;;;;;;4158291;28;20694;-70
2021/12/06 03:30:24;;;;;;;32.57;18.10;;;2.30;99.90;;;;;;4156805;28;20290;-72
2021/12/06 03:32:25;;;;;;;31.87;18.37;;;2.30;99.90;;;;;;4158452;28;20267;-67
2021/12/06 03:34:26;;;;;;;33.07;17.93;;;2.30;99.90;;;;;;4156910;28;20274;-65
2021/12/06 03:36:30;;;;;;;33.97;17.70;;;2.30;99.90;;;;;;4158431;28;20267;-65
2021/12/06 03:38:31;;;;;;;34.00;17.07;;;2.30;99.90;;;;;;4156630;28;20321;-71
2021/12/06 03:40:33;;;;;;;30.73;17.07;;;2.40;99.90;;;;;;4158181;28;20267;-62
2021/12/06 03:42:34;;;;;;;34.00;17.30;;;2.40;99.90;;;;;;4156962;28;20313;-65
2021/12/06 03:44:37;;;;;;;31.83;17.07;;;2.40;99.90;;;;;;4158431;28;20266;-73
2021/12/06 03:46:40;;;;;;;34.97;17.07;;;2.40;99.90;;;;;;4157092;28;20267;-63
2021/12/06 03:48:41;;;;;;;30.67;16.63;;;2.40;99.90;;;;;;4157772;28;20275;-69
2021/12/06 03:50:42;;;;;;;32.83;17.93;;;2.40;99.90;;;;;;4156884;28;20871;-67
2021/12/06 03:52:43;;;;;;;34.03;17.70;;;2.40;99.90;;;;;;4157837;28;20320;-67
2021/12/06 03:54:46;;;;;;;36.93;17.23;;;2.40;99.90;;;;;;4156847;28;20784;-66
2021/12/06 03:56:48;;;;;;;34.10;17.87;;;2.40;99.90;;;;;;4157372;28;20674;-65
2021/12/06 03:58:49;;;;;;;35.00;17.73;;;2.40;99.90;;;;;;4157387;28;20287;-73
2021/12/06 04:00:50;;;;;;;30.00;17.03;;;2.40;99.90;;;;;;4157278;28;20840;-62
2021/12/06 04:02:51;;;;;;;32.50;15.87;;;2.40;99.90;;;;;;4157625;28;20266;-73
2021/12/06 04:04:53;;;;;;;29.40;15.27;;;2.50;99.90;;;;;;4156567;28;20254;-66
2021/12/06 04:06:56;;;;;;;31.57;15.60;;;2.40;99.90;;;;;;4158335;28;20274;-66
2021/12/06 04:08:57;;;;;;;27.37;15.77;;;2.50;99.90;;;;;;4156454;28;20667;-66
2021/12/06 04:10:59;;;;;;;28.63;14.67;;;2.50;99.90;;;;;;4158096;28;20294;-73
2021/12/06 04:13:00;;;;;;;28.50;13.27;;;2.50;99.90;;;;;;4157053;28;20266;-68
2021/12/06 04:15:04;;;;;;;29.73;15.00;;;2.50;99.90;;;;;;4158190;28;20809;-65
2021/12/06 04:17:06;;;;;;;31.90;14.83;;;2.60;99.90;;;;;;4156738;28;20305;-67
2021/12/06 04:19:10;;;;;;;28.60;15.03;;;2.60;99.90;;;;;;4157588;28;20254;-72
2021/12/06 04:21:11;;;;;;;32.97;16.40;;;2.60;99.90;;;;;;4156717;28;20278;-69
2021/12/06 04:23:14;;;;;;;30.97;16.00;;;2.60;99.90;;;;;;4157778;28;20328;-70
2021/12/06 04:25:17;;;;;;;28.50;15.10;;;2.60;99.90;;;;;;4156438;28;20263;-62
2021/12/06 04:27:19;;;;;;;32.73;16.47;;;2.70;99.90;;;;;;4157451;28;20283;-62
2021/12/06 04:29:20;;;;;;;31.77;15.73;;;2.60;99.90;;;;;;4156887;28;20251;-62
2021/12/06 04:31:21;;;;;;;28.23;14.33;;;2.60;99.90;;;;;;4157244;28;20357;-68
2021/12/06 04:33:22;;;;;;;32.30;15.83;;;2.60;99.90;;;;;;4156772;28;20305;-62
2021/12/06 04:35:24;;;;;;;29.83;15.73;;;2.70;99.90;;;;;;4156730;28;20263;-66
2021/12/06 04:37:25;;;;;;;28.83;15.80;;;2.70;99.90;;;;;;4157440;28;20279;-73
2021/12/06 04:39:28;;;;;;;32.70;16.37;;;2.70;99.90;;;;;;4156633;28;20275;-69
2021/12/06 04:41:29;;;;;;;33.53;16.37;;;2.70;99.90;;;;;;4157415;28;20324;-65
2021/12/06 04:43:32;;;;;;;29.17;16.23;;;2.60;99.90;;;;;;4156304;28;20295;-64
2021/12/06 04:45:33;;;;;;;31.80;15.53;;;2.60;99.90;;;;;;4157385;28;20313;-68
2021/12/06 04:47:34;;;;;;;33.03;16.47;;;2.60;99.90;;;;;;4156060;28;20370;-69
2021/12/06 04:49:36;;;;;;;27.80;14.53;;;2.50;99.90;;;;;;4157223;28;20763;-72
2021/12/06 04:51:46;;;;;;;29.50;15.50;;;2.60;99.90;;;;;;4155820;28;20302;-64
2021/12/06 04:53:49;;;;;;;26.95;13.98;;;2.60;99.90;;;;;;4157362;28;20348;-71
2021/12/06 04:56:22;;;;;;;28.03;15.17;;;2.60;99.90;;;;;;4155608;28;20118;-67
2021/12/06 04:58:29;;;;;;;23.23;13.50;;;2.60;99.90;;;;;;4157633;28;20674;-71
2021/12/06 05:00:48;;;;;;;29.37;14.83;;;2.60;99.90;;;;;;4157545;28;20309;-63
2021/12/06 05:02:49;;;;;;;27.83;14.73;;;2.60;99.90;;;;;;4160399;28;20274;-60
2021/12/06 05:04:54;;;;;;;28.77;15.07;;;2.60;99.90;;;;;;4158765;28;20262;-59
2021/12/06 05:07:05;;;;;;;31.07;15.33;;;2.60;99.90;;;;;;4160223;28;20352;-61
2021/12/06 05:09:14;;;;;;;29.25;14.30;;;2.70;99.90;;;;;;4159006;28;20773;-61
2021/12/06 05:11:18;;;;;;;26.63;14.23;;;2.60;99.90;;;;;;4160475;28;20042;-60
2021/12/06 05:13:19;;;;;;;26.63;15.17;;;2.60;99.90;;;;;;4158989;28;20393;-61
2021/12/06 05:15:21;;;;;;;26.93;14.87;;;2.70;99.90;;;;;;4159921;28;20329;-68
2021/12/06 05:17:22;;;;;;;23.07;13.80;;;2.70;99.90;;;;;;4158799;28;20942;-59
2021/12/06 05:19:24;;;;;;;30.23;15.67;;;2.70;99.90;;;;;;4159649;28;20350;-60
2021/12/06 05:21:25;;;;;;;26.50;15.43;;;2.70;99.90;;;;;;4158469;28;20251;-60
2021/12/06 05:23:27;;;;;;;27.60;14.30;;;2.70;99.90;;;;;;4158834;28;20259;-60
2021/12/06 05:25:28;;;;;;;26.20;14.17;;;2.80;99.90;;;;;;4158124;28;20336;-64
2021/12/06 05:27:30;;;;;;;27.63;13.57;;;2.80;99.90;;;;;;4158451;28;20263;-61
2021/12/06 05:29:32;;;;;;;27.30;14.40;;;2.80;99.90;;;;;;4158518;28;20696;-59
2021/12/06 05:31:39;;;;;;;26.40;15.20;;;2.80;99.90;;;;;;4150225;28;20364;-72
2021/12/06 05:33:46;;;;;;;25.10;14.67;;;2.80;99.90;;;;;;4162839;28;21207;-65
2021/12/06 05:35:47;;;;;;;28.60;16.37;;;2.80;99.90;;;;;;4164704;28;20296;-64
2021/12/06 05:37:53;;;;;;;38.03;18.27;;;2.80;99.90;;;;;;4169237;28;20308;-60
2021/12/06 05:39:55;;;;;;;38.43;18.90;;;2.90;99.90;;;;;;4161339;28;21972;-61
2021/12/06 05:42:03;;;;;;;32.60;16.73;;;2.90;99.90;;;;;;4168141;28;20324;-68
2021/12/06 05:44:04;;;;;;;29.30;15.57;;;2.90;99.90;;;;;;4170768;28;20270;-73
2021/12/06 05:46:06;;;;;;;26.93;14.67;;;3.00;99.90;;;;;;4151475;28;20286;-69
2021/12/06 05:48:07;;;;;;;23.63;13.07;;;3.00;99.90;;;;;;4158289;28;20295;-58
2021/12/06 05:50:09;;;;;;;28.43;14.60;;;3.00;99.90;;;;;;4156272;28;20278;-61
2021/12/06 05:52:10;;;;;;;28.43;14.37;;;3.10;99.90;;;;;;4157309;28;20294;-64
2021/12/06 05:54:11;;;;;;;26.07;13.67;;;3.20;99.90;;;;;;4158356;28;20340;-64
2021/12/06 05:56:13;;;;;;;25.03;14.60;;;3.20;99.90;;;;;;4157709;28;20275;-62
2021/12/06 05:58:17;;;;;;;28.40;14.20;;;3.20;99.90;;;;;;4159375;28;20282;-63
2021/12/06 06:00:20;;;;;;;30.30;14.97;;;3.20;99.90;;;;;;4157210;28;20274;-66
2021/12/06 06:02:22;;;;;;;24.60;13.63;;;3.20;99.90;;;;;;4158540;28;20270;-65
2021/12/06 06:04:26;;;;;;;29.37;14.97;;;3.20;99.90;;;;;;4157648;28;20262;-58
2021/12/06 06:06:32;;;;;;;30.37;14.53;;;3.20;99.90;;;;;;4157533;28;20276;-66
2021/12/06 06:08:34;;;;;;;28.30;15.63;;;3.20;99.90;;;;;;4157582;28;20305;-62
2021/12/06 06:10:35;;;;;;;32.50;16.60;;;3.20;99.90;;;;;;4156338;28;20263;-61
2021/12/06 06:12:37;;;;;;;29.23;16.97;;;3.20;99.90;;;;;;4157055;28;21211;-61
2021/12/06 06:14:38;;;;;;;27.53;14.73;;;3.20;99.90;;;;;;4156719;28;20300;-68
2021/12/06 06:16:47;;;;;;;34.07;17.37;;;3.10;99.90;;;;;;4158260;28;20393;-62
2021/12/06 06:18:50;;;;;;;31.20;16.17;;;3.20;99.90;;;;;;4157131;28;20267;-61
2021/12/06 06:20:54;;;;;;;26.80;14.90;;;3.20;99.90;;;;;;4159389;28;20329;-63
2021/12/06 06:22:55;;;;;;;28.30;14.90;;;3.10;99.90;;;;;;4155912;28;20270;-60
2021/12/06 06:24:56;;;;;;;37.87;19.83;;;3.10;99.90;;;;;;4158214;28;20283;-66
2021/12/06 06:26:57;;;;;;;30.47;17.13;;;3.10;99.90;;;;;;4157978;28;20305;-61
2021/12/06 06:28:58;;;;;;;33.30;17.40;;;3.10;99.90;;;;;;4159015;28;20731;-63
2021/12/06 06:30:59;;;;;;;34.23;16.87;;;3.00;99.90;;;;;;4157520;28;20328;-69
2021/12/06 06:33:02;;;;;;;32.23;15.57;;;3.00;99.90;;;;;;4157724;28;20340;-60
2021/12/06 06:35:04;;;;;;;32.07;17.10;;;3.00;99.90;;;;;;4157445;28;20324;-60
2021/12/06 06:37:06;;;;;;;34.40;16.13;;;3.00;99.90;;;;;;4158306;28;20263;-70
2021/12/06 06:39:08;;;;;;;31.33;17.07;;;3.00;99.90;;;;;;4156236;28;20669;-58
2021/12/06 06:41:10;;;;;;;31.50;17.30;;;3.00;99.90;;;;;;4152807;28;21183;-59
2021/12/06 06:43:11;;;;;;;28.13;16.00;;;3.00;99.90;;;;;;4158503;28;20270;-59
2021/12/06 06:45:15;;;;;;;32.40;17.50;;;3.00;99.90;;;;;;4157335;28;20659;-60
2021/12/06 06:47:17;;;;;;;32.93;18.70;;;3.00;99.90;;;;;;4158564;28;20274;-58
2021/12/06 06:49:19;;;;;;;30.67;15.93;;;3.00;99.90;;;;;;4157347;28;20826;-62
2021/12/06 06:51:20;;;;;;;30.03;16.63;;;3.00;99.90;;;;;;4158049;28;20344;-62
2021/12/06 06:53:21;;;;;;;28.63;16.30;;;3.00;99.90;;;;;;4157818;28;20780;-59
2021/12/06 06:55:23;;;;;;;30.63;17.97;;;3.10;99.90;;;;;;4158324;28;20551;-60
2021/12/06 06:57:24;;;;;;;32.37;17.40;;;3.10;99.90;;;;;;4154415;28;20313;-60
2021/12/06 06:59:25;;;;;;;30.87;17.40;;;3.10;99.90;;;;;;4158885;28;20766;-61
2021/12/06 07:01:26;;;;;;;34.00;16.90;;;3.10;99.90;;;;;;4156697;28;20275;-60
2021/12/06 07:03:31;;;;;;;32.10;16.37;;;3.10;99.90;;;;;;4158776;28;20274;-60
2021/12/06 07:05:33;;;;;;;31.33;16.73;;;3.20;99.90;;;;;;4157699;28;20355;-63
2021/12/06 07:07:35;;;;;;;39.67;19.47;;;3.20;99.90;;;;;;4158876;28;20279;-61
2021/12/06 07:09:36;;;;;;;36.63;19.37;;;3.20;99.90;;;;;;4157765;28;20258;-74
2021/12/06 07:11:37;;;;;;;40.07;19.43;;;3.20;99.90;;;;;;4158179;28;20286;-64
2021/12/06 07:13:39;;;;;;;35.70;18.40;;;3.30;99.90;;;;;;4158066;28;20746;-64
2021/12/06 07:15:40;;;;;;;35.90;19.63;;;3.30;99.90;;;;;;4157966;28;20332;-64
2021/12/06 07:17:43;;;;;;;34.23;18.27;;;3.30;99.90;;;;;;4158292;28;20255;-59
2021/12/06 07:19:44;;;;;;;31.07;16.97;;;3.30;99.90;;;;;;4157602;28;20685;-60
2021/12/06 07:21:45;;;;;;;28.93;16.97;;;3.40;99.90;;;;;;4157906;28;20743;-61
2021/12/06 07:23:48;;;;;;;27.70;15.03;;;3.40;99.90;;;;;;4157360;28;20270;-59
2021/12/06 07:25:49;;;;;;;30.90;16.37;;;3.50;99.90;;;;;;4157625;28;20313;-59
2021/12/06 07:27:51;;;;;;;30.23;15.60;;;3.50;99.90;;;;;;4156956;28;20388;-60
2021/12/06 07:29:53;;;;;;;30.33;15.77;;;3.50;99.90;;;;;;4158537;28;20341;-62
2021/12/06 07:31:54;;;;;;;29.73;15.80;;;3.50;99.90;;;;;;4156758;28;20364;-60
2021/12/06 07:33:55;;;;;;;28.83;15.67;;;3.60;99.90;;;;;;4158165;28;20263;-61
2021/12/06 07:35:56;;;;;;;34.83;16.23;;;3.60;99.90;;;;;;4156627;28;20349;-71
2021/12/06 07:38:00;;;;;;;32.20;16.33;;;3.60;99.90;;;;;;4157993;28;20764;-61
2021/12/06 07:40:04;;;;;;;28.80;15.70;;;3.60;99.90;;;;;;4162110;28;20308;-61
2021/12/06 07:42:06;;;;;;;30.37;16.60;;;3.70;99.90;;;;;;4157496;28;20263;-59
2021/12/06 07:44:07;;;;;;;31.27;15.37;;;3.70;99.90;;;;;;4155842;28;20263;-61
2021/12/06 07:46:09;;;;;;;28.47;15.47;;;3.70;99.90;;;;;;4157141;28;20313;-60
2021/12/06 07:48:10;;;;;;;30.23;15.80;;;3.70;99.90;;;;;;4157327;28;20901;-61
2021/12/06 07:50:15;;;;;;;30.10;15.43;;;3.70;99.90;;;;;;4157212;28;20274;-60
2021/12/06 07:52:16;;;;;;;31.20;16.67;;;3.60;99.90;;;;;;4157954;28;20299;-68
2021/12/06 07:54:17;;;;;;;32.90;16.90;;;3.70;99.90;;;;;;4156505;28;20267;-61
2021/12/06 07:56:19;;;;;;;35.33;17.80;;;3.70;99.90;;;;;;4157696;28;20344;-60
2021/12/06 07:58:21;;;;;;;31.37;16.23;;;3.70;99.90;;;;;;4156902;28;20808;-61
2021/12/06 08:00:23;;;;;;;28.93;15.47;;;3.70;99.90;;;;;;4158227;28;20275;-59
2021/12/06 08:02:25;;;;;;;28.07;16.03;;;3.70;99.90;;;;;;4150336;28;20263;-61
2021/12/06 08:04:26;;;;;;;31.43;17.70;;;3.80;99.90;;;;;;4155919;28;20251;-63
2021/12/06 08:06:29;;;;;;;32.80;16.83;;;3.80;99.90;;;;;;4152688;28;20871;-60
2021/12/06 08:08:33;;;;;;;33.83;16.83;;;3.80;99.90;;;;;;4156976;28;20785;-71
2021/12/06 08:10:37;;;;;;;28.90;15.50;;;3.80;99.90;;;;;;4154925;28;20632;-73
2021/12/06 08:12:38;;;;;;;31.43;16.77;;;3.80;99.90;;;;;;4153653;28;20352;-67
2021/12/06 08:14:40;;;;;;;31.40;16.63;;;3.80;99.90;;;;;;4156302;28;20337;-68
2021/12/06 08:16:43;;;;;;;31.73;17.10;;;3.80;99.90;;;;;;4156362;28;20283;-63
2021/12/06 08:18:45;;;;;;;32.47;17.10;;;3.80;99.90;;;;;;4154918;28;20368;-59
2021/12/06 08:20:47;;;;;;;29.73;16.73;;;3.90;99.90;;;;;;4156406;28;20332;-75
2021/12/06 08:22:48;;;;;;;31.77;16.93;;;3.90;99.90;;;;;;4153490;28;20663;-68
2021/12/06 08:24:49;;;;;;;29.73;16.33;;;3.90;99.90;;;;;;4156189;28;20328;-66
2021/12/06 08:26:50;;;;;;;26.73;15.07;;;3.80;99.90;;;;;;4156885;28;20313;-65
2021/12/06 08:28:54;;;;;;;29.17;16.40;;;3.80;99.90;;;;;;4156096;28;20324;-68
2021/12/06 08:30:55;;;;;;;31.60;16.03;;;3.90;99.90;;;;;;4157343;28;20275;-74
2021/12/06 08:32:59;;;;;;;33.37;17.50;;;3.80;99.90;;;;;;4155251;28;20706;-68
2021/12/06 08:35:01;;;;;;;31.17;16.93;;;3.80;99.90;;;;;;4158718;28;20372;-66
2021/12/06 08:37:02;;;;;;;31.10;15.63;;;3.80;99.90;;;;;;4172536;28;20685;-63
2021/12/06 08:39:06;;;;;;;29.37;15.43;;;3.90;99.90;;;;;;4160667;28;20353;-60
2021/12/06 08:41:14;;;;;;;31.50;16.00;;;3.90;99.90;;;;;;4156226;28;20348;-69
2021/12/06 08:43:17;;;;;;;29.80;16.87;;;3.80;99.90;;;;;;4157486;28;20279;-61
2021/12/06 08:45:18;;;;;;;30.20;16.37;;;3.80;99.90;;;;;;4155105;28;20266;-70
2021/12/06 08:47:19;;;;;;;33.53;17.47;;;3.80;99.90;;;;;;4156761;28;20295;-61
2021/12/06 08:49:21;;;;;;;29.60;16.07;;;3.80;99.90;;;;;;4156181;28;20279;-65
2021/12/06 08:51:36;;;;;;;29.27;16.70;;;3.90;99.90;;;;;;4156852;28;20344;-63
2021/12/06 08:53:39;;;;;;;31.97;16.50;;;3.90;99.90;;;;;;4146772;28;20279;-70
2021/12/06 08:55:40;;;;;;;32.07;17.40;;;3.90;99.90;;;;;;4155573;28;20266;-63
2021/12/06 08:57:43;;;;;;;41.10;20.97;;;3.90;99.90;;;;;;4154626;28;20293;-60
2021/12/06 08:59:44;;;;;;;38.77;21.00;;;3.90;99.90;;;;;;4155497;28;20332;-64
2021/12/06 09:01:46;;;;;;;49.53;21.27;;;4.00;99.90;;;;;;4155198;28;20606;-63
2021/12/06 09:03:47;;;;;;;39.73;19.77;;;4.10;99.90;;;;;;4155907;28;20356;-73
2021/12/06 09:05:52;;;;;;;40.33;20.23;;;4.10;99.90;;;;;;4155724;28;20805;-62
2021/12/06 09:07:53;;;;;;;40.63;19.87;;;4.10;99.90;;;;;;4154471;28;20354;-60
2021/12/06 09:09:56;;;;;;;36.87;19.03;;;4.10;99.90;;;;;;4155730;28;20294;-59
2021/12/06 09:11:57;;;;;;;35.07;18.97;;;4.10;99.90;;;;;;4155180;28;20364;-60
2021/12/06 09:13:58;;;;;;;37.57;19.33;;;4.20;99.90;;;;;;4158028;28;20674;-63
2021/12/06 09:16:02;;;;;;;34.43;18.53;;;4.20;99.90;;;;;;4155562;28;20259;-60
2021/12/06 09:18:04;;;;;;;32.30;17.03;;;4.30;99.90;;;;;;4157037;28;20313;-60
2021/12/06 09:20:07;;;;;;;32.00;17.63;;;4.30;99.90;;;;;;4155561;28;20278;-60
2021/12/06 09:22:09;;;;;;;34.57;17.70;;;4.40;99.90;;;;;;4156666;28;20290;-63
2021/12/06 09:24:18;;;;;;;44.17;20.97;;;4.40;99.90;;;;;;4155687;28;20274;-61
2021/12/06 09:26:19;;;;;;;36.73;19.33;;;4.50;99.90;;;;;;4157053;28;20270;-61
2021/12/06 09:28:21;;;;;;;37.73;19.67;;;4.50;99.90;;;;;;4155708;28;20267;-63
2021/12/06 09:30:26;;;;;;;37.10;20.47;;;4.50;99.90;;;;;;4156712;28;20806;-61
2021/12/06 09:32:27;;;;;;;40.77;19.83;;;4.50;99.90;;;;;;4170756;28;20290;-61
2021/12/06 09:34:29;;;;;;;37.83;17.63;;;4.60;99.90;;;;;;4163962;28;20305;-61
2021/12/06 09:36:31;;;;;;;38.87;19.00;;;4.60;99.90;;;;;;4155997;28;20301;-61
2021/12/06 09:38:37;;;;;;;36.13;17.20;;;4.70;99.90;;;;;;4155710;28;20266;-70
2021/12/06 09:40:42;;;;;;;35.00;17.23;;;4.70;99.90;;;;;;4154003;28;20364;-75
2021/12/06 09:42:45;;;;;;;27.93;15.87;;;4.70;99.90;;;;;;4155678;28;20328;-66
2021/12/06 09:44:47;;;;;;;29.00;16.27;;;4.70;99.90;;;;;;4157531;28;20266;-70
2021/12/06 09:46:48;;;;;;;29.70;16.17;;;4.70;99.90;;;;;;4158012;28;20313;-71
2021/12/06 09:48:49;;;;;;;29.63;15.50;;;4.70;99.90;;;;;;4159165;28;21260;-61
2021/12/06 09:51:01;;;;;;;27.80;14.93;;;4.70;99.90;;;;;;4157145;28;20290;-62
2021/12/06 09:53:06;;;;;;;29.63;15.40;;;4.70;99.90;;;;;;4158748;28;20336;-62
2021/12/06 09:55:07;;;;;;;30.60;16.77;;;4.70;99.90;;;;;;4158097;28;20321;-61
2021/12/06 09:57:10;;;;;;;28.30;14.90;;;4.70;99.90;;;;;;4159568;28;20702;-64
2021/12/06 09:59:14;;;;;;;23.60;13.97;;;4.70;99.90;;;;;;4158370;28;20666;-67
2021/12/06 10:01:24;;;;;;;30.97;15.87;;;4.70;99.90;;;;;;4159290;28;20275;-61
2021/12/06 10:03:29;;;;;;;31.17;16.60;;;4.70;99.90;;;;;;4157481;28;20813;-59
2021/12/06 10:05:30;;;;;;;27.90;14.80;;;4.80;99.90;;;;;;4158929;28;20354;-66
2021/12/06 10:07:32;;;;;;;24.83;14.87;;;4.80;99.90;;;;;;4158178;28;20274;-64
2021/12/06 10:09:33;;;;;;;27.20;15.63;;;4.80;99.90;;;;;;4159230;28;20329;-62
2021/12/06 10:11:35;;;;;;;26.50;15.37;;;4.90;99.90;;;;;;4158030;28;20320;-66
2021/12/06 10:13:36;;;;;;;27.43;15.00;;;4.90;99.90;;;;;;4160099;28;20328;-66
2021/12/06 10:15:40;;;;;;;29.93;15.07;;;5.10;99.90;;;;;;4158660;28;20313;-61
2021/12/06 10:17:41;;;;;;;27.20;14.73;;;5.10;99.90;;;;;;4158952;28;20275;-62
2021/12/06 10:19:44;;;;;;;29.23;15.03;;;5.10;99.90;;;;;;4156820;28;20279;-64
2021/12/06 10:21:45;;;;;;;23.40;13.90;;;5.10;99.90;;;;;;4158227;28;20370;-66
2021/12/06 10:23:48;;;;;;;24.43;14.37;;;5.10;99.90;;;;;;4158678;28;20262;-62
2021/12/06 10:25:52;;;;;;;29.23;16.20;;;5.20;99.90;;;;;;4160591;28;20275;-68
2021/12/06 10:28:00;;;;;;;29.23;16.97;;;5.20;99.90;;;;;;4175206;28;20274;-66
2021/12/06 10:30:09;;;;;;;35.23;18.93;;;5.20;99.90;;;;;;4174394;28;20612;-68
2021/12/06 10:32:20;;;;;;;38.87;16.90;;;5.20;99.90;;;;;;4171720;28;20273;-59
2021/12/06 10:34:24;;;;;;;;;;;5.30;99.90;;;;;;4158227;28;20266;-66
2021/12/06 10:36:26;;;;;;;27.80;15.73;;;5.30;99.90;;;;;;4158594;28;20027;-61
2021/12/06 10:38:36;;;;;;;27.20;14.73;;;5.30;99.90;;;;;;4157305;28;20270;-62
2021/12/06 10:40:41;;;;;;;30.43;16.27;;;5.30;99.90;;;;;;4158479;28;20336;-64
2021/12/06 10:42:45;;;;;;;27.30;15.37;;;5.30;99.90;;;;;;4157679;28;20623;-59